Time;durP1;ratioP1;P1;durP2;ratioP2;P2;SDS_P1;SDS_P2;PMS_P1;PMS_P2;Temp;Humidity;BMP_temperature;BMP_pressure;BME280_temperature;BME280_humidity;BME280_pressure;Samples;Min_cycle;Max_cycle;Signal;HPM_P1;HPM_P2
2022/10/06 00:01:58;;;;;;;30.77;18.60;;;;;;;16.74;100.00;101512.66;4960396;29;20036;-84
2022/10/06 00:04:23;;;;;;;24.48;17.58;;;;;;;16.80;100.00;101511.97;4962151;28;20051;-85
2022/10/06 00:06:49;;;;;;;30.02;18.55;;;;;;;16.67;100.00;101510.91;4947958;29;20036;-84
2022/10/06 00:09:15;;;;;;;30.90;18.73;;;;;;;16.51;100.00;101509.09;4951812;29;20050;-84
2022/10/06 00:11:41;;;;;;;27.75;18.98;;;;;;;16.41;100.00;101512.00;4964582;29;20035;-83
2022/10/06 00:14:06;;;;;;;34.63;20.95;;;;;;;16.34;100.00;101512.91;4964136;29;20039;-84
2022/10/06 00:16:32;;;;;;;31.42;19.23;;;;;;;16.27;100.00;101514.63;4961681;29;20023;-86
2022/10/06 00:18:57;;;;;;;35.80;20.45;;;;;;;16.38;100.00;101503.50;4964564;29;20122;-84
2022/10/06 00:21:23;;;;;;;32.95;21.67;;;;;;;16.45;100.00;101512.50;4965546;29;20059;-85
2022/10/06 00:23:49;;;;;;;29.90;19.35;;;;;;;16.42;100.00;101507.50;4932016;29;20065;-84
2022/10/06 00:26:15;;;;;;;34.10;19.48;;;;;;;16.46;100.00;101508.81;4964531;29;20031;-84
2022/10/06 00:28:43;;;;;;;34.85;20.05;;;;;;;16.28;100.00;101509.06;4964954;29;20039;-85
2022/10/06 00:31:08;;;;;;;30.25;20.17;;;;;;;16.25;100.00;101511.25;4963467;29;20090;-85
2022/10/06 00:33:36;;;;;;;35.22;20.20;;;;;;;16.32;100.00;101496.19;4963581;29;20114;-84
2022/10/06 00:36:01;;;;;;;30.42;19.83;;;;;;;16.51;100.00;101501.06;4964772;29;20047;-84
2022/10/06 00:38:27;;;;;;;31.58;19.70;;;;;;;16.48;100.00;101507.63;4965948;29;20027;-85
2022/10/06 00:40:53;;;;;;;28.33;18.77;;;;;;;16.52;100.00;101503.59;4965013;29;20039;-85
2022/10/06 00:43:48;;;;;;;28.95;18.83;;;;;;;16.42;100.00;101500.31;4947356;29;20027;-84
2022/10/06 00:46:45;;;;;;;30.05;19.60;;;;;;;16.35;100.00;101503.84;4965839;29;20038;-85
2022/10/06 00:49:22;;;;;;;30.73;19.10;;;;;;;16.43;100.00;101503.81;4949177;29;20041;-84
2022/10/06 00:51:55;;;;;;;30.25;19.70;;;;;;;16.42;100.00;101513.69;4965869;29;20444;-85
2022/10/06 00:54:22;;;;;;;32.20;20.20;;;;;;;16.23;100.00;101513.28;4967362;29;20035;-84
2022/10/06 00:56:49;;;;;;;30.23;18.83;;;;;;;16.12;100.00;101508.31;4950421;29;20039;-87
2022/10/06 00:59:17;;;;;;;32.70;20.80;;;;;;;15.90;100.00;101505.41;4949321;29;20078;-85
2022/10/06 01:02:20;;;;;;;30.85;19.58;;;;;;;15.85;100.00;101505.09;4966427;29;20066;-84
2022/10/06 01:04:54;;;;;;;30.45;19.60;;;;;;;15.96;100.00;101506.56;4966796;29;20039;-84
2022/10/06 01:07:23;;;;;;;31.30;18.98;;;;;;;16.01;100.00;101510.38;4966422;29;20043;-85
2022/10/06 01:09:49;;;;;;;29.02;18.60;;;;;;;15.94;100.00;101506.72;4966720;29;20035;-83
2022/10/06 01:12:15;;;;;;;30.45;19.23;;;;;;;16.14;100.00;101509.00;4966793;29;20071;-84
2022/10/06 01:14:41;;;;;;;30.33;19.98;;;;;;;15.99;100.00;101500.84;4932272;29;20381;-84
2022/10/06 01:17:21;;;;;;;38.30;20.27;;;;;;;15.98;100.00;101500.03;4947951;29;20039;-85
2022/10/06 01:19:46;;;;;;;33.38;20.38;;;;;;;15.94;100.00;101500.56;4967152;29;20479;-84
2022/10/06 01:22:15;;;;;;;32.42;20.40;;;;;;;15.87;100.00;101492.41;4969876;29;20043;-85
2022/10/06 01:24:41;;;;;;;31.42;20.20;;;;;;;15.93;100.00;101505.06;4968271;29;20051;-85
2022/10/06 01:27:10;;;;;;;29.98;19.73;;;;;;;15.82;100.00;101494.75;4934044;29;20043;-83
2022/10/06 01:29:37;;;;;;;33.92;19.27;;;;;;;15.83;100.00;101496.41;4948720;29;20031;-84
2022/10/06 01:32:03;;;;;;;38.58;20.77;;;;;;;15.82;100.00;101489.38;4949185;29;20039;-83
2022/10/06 01:34:29;;;;;;;32.22;22.23;;;;;;;15.91;100.00;101488.34;4964108;29;20044;-84
2022/10/06 01:36:55;;;;;;;29.10;20.38;;;;;;;15.97;100.00;101498.34;4946754;29;20114;-84
2022/10/06 01:39:21;;;;;;;33.08;20.48;;;;;;;15.85;100.00;101497.06;4945987;29;20066;-83
2022/10/06 01:41:46;;;;;;;33.03;19.90;;;;;;;15.91;100.00;101498.19;4946304;29;20449;-83
2022/10/06 01:44:13;;;;;;;31.02;20.90;;;;;;;15.83;100.00;101491.06;4948847;29;20031;-85
2022/10/06 01:46:39;;;;;;;28.90;20.55;;;;;;;15.81;100.00;101495.72;4949265;29;20106;-85
2022/10/06 01:49:04;;;;;;;33.13;21.27;;;;;;;15.93;100.00;101496.22;4966465;29;20405;-85
2022/10/06 01:51:30;;;;;;;33.75;21.20;;;;;;;15.83;100.00;101490.22;4933442;29;20118;-85
2022/10/06 01:53:56;;;;;;;31.75;21.73;;;;;;;15.71;100.00;101497.78;4947467;29;20043;-84
2022/10/06 01:56:22;;;;;;;37.83;23.15;;;;;;;15.58;100.00;101497.47;4946409;29;20089;-84
2022/10/06 01:58:49;;;;;;;41.83;23.92;;;;;;;15.56;100.00;101493.31;4931553;29;20074;-85
2022/10/06 02:01:15;;;;;;;36.83;22.52;;;;;;;15.49;100.00;101487.81;4945923;29;20070;-85
2022/10/06 02:03:41;;;;;;;36.35;23.02;;;;;;;15.44;100.00;101500.84;4964420;29;20039;-84
2022/10/06 02:06:08;;;;;;;37.60;24.00;;;;;;;15.50;100.00;101500.19;4946757;29;20027;-83
2022/10/06 02:08:34;;;;;;;33.78;21.55;;;;;;;15.69;100.00;101497.13;4962151;29;20343;-83
2022/10/06 02:11:09;;;;;;;37.58;22.63;;;;;;;15.78;100.00;101492.56;4945760;29;20046;-83
2022/10/06 02:13:40;;;;;;;36.08;21.95;;;;;;;15.80;100.00;101486.06;4962200;29;20050;-84
2022/10/06 02:16:06;;;;;;;37.13;23.08;;;;;;;15.63;100.00;101492.47;4944698;29;20441;-84
2022/10/06 02:18:34;;;;;;;41.08;23.65;;;;;;;15.59;100.00;101485.78;4944946;29;20527;-83
2022/10/06 02:21:00;;;;;;;34.65;22.25;;;;;;;15.56;100.00;101488.81;4928760;29;20485;-84
2022/10/06 02:23:26;;;;;;;34.85;23.67;;;;;;;15.52;100.00;101492.81;4945065;29;20023;-86
2022/10/06 02:25:59;;;;;;;37.88;23.65;;;;;;;15.52;100.00;101482.13;4963279;28;20054;-85
2022/10/06 02:28:25;;;;;;;39.25;23.50;;;;;;;15.53;100.00;101491.81;4946296;29;20075;-85
2022/10/06 02:30:51;;;;;;;39.28;23.73;;;;;;;15.52;100.00;101484.81;4929931;29;20110;-85
2022/10/06 02:33:17;;;;;;;35.90;23.60;;;;;;;15.62;100.00;101482.78;4963170;29;20044;-84
2022/10/06 02:35:43;;;;;;;40.90;23.17;;;;;;;15.50;100.00;101478.81;4945381;29;20033;-83
2022/10/06 02:38:09;;;;;;;35.30;23.17;;;;;;;15.51;100.00;101472.47;4945107;29;20472;-83
2022/10/06 02:40:35;;;;;;;41.28;24.23;;;;;;;15.38;100.00;101485.44;4961443;29;20047;-84
2022/10/06 02:43:01;;;;;;;42.58;24.45;;;;;;;15.35;100.00;101480.44;4928819;29;20063;-84
2022/10/06 02:45:26;;;;;;;46.40;23.98;;;;;;;15.41;100.00;101487.81;4961582;29;20469;-84
2022/10/06 02:47:53;;;;;;;35.08;24.63;;;;;;;15.39;100.00;101482.63;4943508;29;20039;-84
2022/10/06 02:50:19;;;;;;;34.03;23.90;;;;;;;15.27;100.00;101483.16;4942888;29;20026;-82
2022/10/06 02:52:45;;;;;;;40.05;23.23;;;;;;;15.33;100.00;101477.13;4943119;29;21863;-83
2022/10/06 02:55:12;;;;;;;35.67;24.25;;;;;;;15.44;100.00;101479.47;4943810;29;20051;-84
2022/10/06 02:57:38;;;;;;;36.45;24.52;;;;;;;15.25;100.00;101479.81;4944371;29;20082;-84
2022/10/06 03:00:08;;;;;;;46.63;26.02;;;;;;;15.07;100.00;101476.50;4928800;29;20058;-84
2022/10/06 03:02:34;;;;;;;41.50;25.13;;;;;;;15.36;100.00;101482.13;4944682;29;20039;-84
2022/10/06 03:04:59;;;;;;;40.85;25.85;;;;;;;15.20;100.00;101472.31;4945637;29;20049;-85
2022/10/06 03:07:26;;;;;;;42.78;27.48;;;;;;;15.11;100.00;101480.50;4944554;29;20070;-84
2022/10/06 03:09:51;;;;;;;47.05;26.95;;;;;;;15.00;100.00;101471.84;4962005;29;20035;-83
2022/10/06 03:12:20;;;;;;;43.58;26.75;;;;;;;15.00;100.00;101482.50;4944761;29;20043;-84
2022/10/06 03:14:46;;;;;;;39.65;26.75;;;;;;;14.87;100.00;101471.50;4961569;29;20500;-84
2022/10/06 03:17:11;;;;;;;43.20;27.40;;;;;;;14.91;100.00;101480.81;4961241;29;20039;-83
2022/10/06 03:19:43;;;;;;;38.13;26.02;;;;;;;15.01;100.00;101481.50;4928220;29;20058;-84
2022/10/06 03:22:09;;;;;;;47.45;27.05;;;;;;;15.17;100.00;101480.66;4942954;29;20098;-84
2022/10/06 03:24:48;;;;;;;37.47;25.85;;;;;;;15.22;100.00;101490.81;4944209;29;20025;-83
2022/10/06 03:27:14;;;;;;;44.42;27.83;;;;;;;15.21;100.00;101489.97;4950215;29;20059;-84
2022/10/06 03:29:39;;;;;;;40.85;27.27;;;;;;;15.23;100.00;101488.00;4954307;29;20031;-84
2022/10/06 03:32:05;;;;;;;42.22;27.33;;;;;;;15.17;100.00;101493.19;4952162;29;20034;-84
2022/10/06 03:34:32;;;;;;;45.28;27.30;;;;;;;14.94;100.00;101488.53;4950559;29;20035;-83
2022/10/06 03:37:00;;;;;;;52.05;29.38;;;;;;;14.71;100.00;101490.19;4951178;29;20039;-82
2022/10/06 03:39:27;;;;;;;40.90;28.23;;;;;;;14.74;100.00;101492.50;4948937;29;20043;-83
2022/10/06 03:41:53;;;;;;;40.97;26.63;;;;;;;14.91;100.00;101488.81;4949404;29;20382;-85
2022/10/06 03:44:20;;;;;;;50.65;27.45;;;;;;;14.93;100.00;101492.19;4956087;28;20055;-83
2022/10/06 03:46:46;;;;;;;42.35;26.65;;;;;;;15.09;100.00;101495.84;4981043;29;20099;-84
2022/10/06 03:49:12;;;;;;;42.70;26.58;;;;;;;15.05;100.00;101495.34;4963858;29;20051;-85
2022/10/06 03:51:41;;;;;;;43.72;26.70;;;;;;;14.79;100.00;101487.50;4963004;29;20050;-83
2022/10/06 03:54:19;;;;;;;46.35;27.27;;;;;;;14.68;100.00;101493.16;4946810;29;20095;-83
2022/10/06 03:56:47;;;;;;;38.22;27.08;;;;;;;14.72;100.00;101491.81;4960957;29;20039;-83
2022/10/06 03:59:16;;;;;;;41.13;25.23;;;;;;;14.74;100.00;101497.84;4958912;29;20031;-84
2022/10/06 04:01:46;;;;;;;34.90;22.98;;;;;;;14.93;100.00;101494.84;4952009;29;20456;-84
2022/10/06 04:04:15;;;;;;;35.88;23.08;;;;;;;14.88;100.00;101488.34;4951197;29;20035;-83
2022/10/06 04:06:43;;;;;;;34.05;22.27;;;;;;;14.76;100.00;101495.84;4949865;29;20038;-85
2022/10/06 04:09:15;;;;;;;;;;;;;;;14.65;100.00;101498.00;4950944;29;20039;-84
2022/10/06 04:11:42;;;;;;;36.35;23.15;;;;;;;14.78;100.00;101496.50;4945657;29;19929;-83
2022/10/06 04:14:10;;;;;;;34.42;22.80;;;;;;;14.76;100.00;101495.00;4946886;29;20027;-82
2022/10/06 04:16:39;;;;;;;34.50;22.60;;;;;;;14.75;100.00;101494.16;4946150;29;20131;-84
2022/10/06 04:19:09;;;;;;;32.17;22.85;;;;;;;14.79;100.00;101495.50;4947762;29;20042;-86
2022/10/06 04:21:39;;;;;;;37.08;21.55;;;;;;;14.94;100.00;101507.22;4956219;29;20046;-87
2022/10/06 04:24:08;;;;;;;36.08;22.27;;;;;;;14.87;100.00;101498.19;4956340;29;20150;-85
2022/10/06 04:26:38;;;;;;;34.05;22.40;;;;;;;14.94;100.00;101507.22;4957199;29;20039;-86
2022/10/06 04:29:07;;;;;;;36.03;22.25;;;;;;;14.81;100.00;101504.19;4944488;29;20398;-87
2022/10/06 04:31:38;;;;;;;34.53;22.20;;;;;;;14.77;100.00;101507.34;4958438;29;20050;-86
2022/10/06 04:34:08;;;;;;;31.15;20.17;;;;;;;14.82;100.00;101511.19;4960261;29;20039;-86
2022/10/06 04:36:40;;;;;;;35.85;21.38;;;;;;;14.78;100.00;101512.50;4961451;29;20102;-87
2022/10/06 04:39:11;;;;;;;32.90;21.90;;;;;;;14.68;100.00;101513.69;4959490;29;20039;-85
2022/10/06 04:41:45;;;;;;;32.30;21.30;;;;;;;14.64;100.00;101513.19;4977296;29;20034;-87
2022/10/06 04:44:16;;;;;;;32.28;21.00;;;;;;;14.58;100.00;101513.00;4946393;29;20027;-86
2022/10/06 04:46:45;;;;;;;37.50;21.48;;;;;;;14.48;100.00;101521.16;4979969;29;20031;-89
2022/10/06 04:49:12;;;;;;;39.25;22.98;;;;;;;14.48;100.00;101518.47;4955048;28;20034;-86
2022/10/06 04:51:40;;;;;;;32.88;20.92;;;;;;;14.46;100.00;101515.13;4958485;29;20031;-85
2022/10/06 04:54:06;;;;;;;36.45;21.67;;;;;;;14.43;100.00;101515.47;4939165;29;20059;-87
2022/10/06 04:56:37;;;;;;;36.10;21.25;;;;;;;14.46;100.00;101517.78;4958022;29;20035;-89
2022/10/06 04:59:05;;;;;;;33.53;21.67;;;;;;;14.53;100.00;101521.47;4979206;28;20095;-86
2022/10/06 05:01:36;;;;;;;39.85;21.45;;;;;;;14.47;100.00;101530.97;4971409;28;20035;-86
2022/10/06 05:04:10;;;;;;;30.15;20.23;;;;;;;14.57;100.00;101525.50;4997609;28;20018;-90
2022/10/06 05:06:41;;;;;;;35.20;20.75;;;;;;;14.59;100.00;101525.31;4946870;28;20041;-89
2022/10/06 05:09:36;;;;;;;37.00;21.92;;;;;;;14.46;100.00;101531.13;4995105;28;20162;-89
2022/10/06 05:12:04;;;;;;;38.17;21.17;;;;;;;14.44;100.00;101530.47;4984104;28;20035;-90
2022/10/06 05:14:51;;;;;;;37.17;22.33;;;;;;;14.40;100.00;101547.78;4965126;28;20014;-88
2022/10/06 05:17:40;;;;;;;34.00;21.65;;;;;;;14.43;100.00;101542.13;4964648;28;20039;-89
2022/10/06 05:20:06;;;;;;;34.67;21.98;;;;;;;14.40;100.00;101548.63;4963703;28;20039;-86
2022/10/06 05:22:32;;;;;;;36.47;21.35;;;;;;;14.50;100.00;101537.81;4974386;28;20111;-84
2022/10/06 05:24:58;;;;;;;44.30;22.75;;;;;;;14.46;100.00;101541.81;4970014;28;20064;-85
2022/10/06 05:27:23;;;;;;;42.50;22.52;;;;;;;14.44;100.00;101549.13;4988547;28;20031;-84
2022/10/06 05:29:50;;;;;;;43.97;22.08;;;;;;;14.59;100.00;101549.34;4968553;28;20388;-85
2022/10/06 05:32:16;;;;;;;33.75;21.55;;;;;;;14.62;100.00;101552.50;4969349;28;20074;-85
2022/10/06 05:34:41;;;;;;;32.67;20.75;;;;;;;14.83;100.00;101558.25;4970138;28;20094;-85
2022/10/06 05:37:07;;;;;;;37.15;20.83;;;;;;;14.96;100.00;101561.25;4977929;28;20031;-91
2022/10/06 05:39:38;;;;;;;41.67;20.33;;;;;;;14.93;100.00;101561.59;4961871;28;20062;-88
2022/10/06 05:42:12;;;;;;;33.95;20.65;;;;;;;14.69;100.00;101564.19;4947558;28;20027;-88
2022/10/06 05:44:38;;;;;;;35.20;20.15;;;;;;;14.72;100.00;101560.38;4995030;28;20090;-87
2022/10/06 05:47:08;;;;;;;30.00;19.25;;;;;;;14.60;100.00;101559.84;4949116;28;20027;-89
2022/10/06 05:49:35;;;;;;;35.67;20.58;;;;;;;14.64;100.00;101561.19;4949483;28;20050;-89
2022/10/06 05:52:11;;;;;;;29.23;20.08;;;;;;;15.00;100.00;101553.75;4982905;28;20038;-88
2022/10/06 05:54:39;;;;;;;35.42;19.83;;;;;;;14.96;100.00;101550.56;4965481;28;20055;-88
2022/10/06 05:57:12;;;;;;;31.65;19.70;;;;;;;14.86;100.00;101565.06;4981135;28;20050;-89
2022/10/06 05:59:42;;;;;;;31.42;20.48;;;;;;;14.90;100.00;101561.91;4998201;28;20053;-89
2022/10/06 06:02:09;;;;;;;33.75;20.65;;;;;;;15.41;100.00;101562.63;4980066;28;20018;-87
2022/10/06 06:04:45;;;;;;;31.05;18.42;;;;;;;15.66;100.00;101569.63;4950483;28;20046;-87
2022/10/06 06:07:15;;;;;;;38.72;20.63;;;;;;;15.59;100.00;101573.97;4981902;28;20038;-89
2022/10/06 06:10:05;;;;;;;31.90;20.45;;;;;;;15.40;100.00;101574.28;4949511;28;20039;-89
2022/10/06 06:12:33;;;;;;;37.72;22.42;;;;;;;15.28;100.00;101572.97;4979683;28;20039;-88
2022/10/06 06:18:04;;;;;;;30.85;20.00;;;;;;;15.56;100.00;101571.63;4982439;28;20074;-89
2022/10/06 06:20:32;;;;;;;33.90;20.70;;;;;;;15.69;100.00;101576.47;4979724;28;20457;-88
2022/10/06 06:22:59;;;;;;;31.50;19.40;;;;;;;15.96;100.00;101581.41;4979459;28;20035;-88
2022/10/06 06:25:43;;;;;;;34.70;19.77;;;;;;;16.42;100.00;101593.97;4978825;28;20074;-85
2022/10/06 06:28:08;;;;;;;33.65;18.33;;;;;;;16.47;100.00;101593.44;4974173;28;20102;-86
2022/10/06 06:30:34;;;;;;;36.70;19.95;;;;;;;16.44;100.00;101588.41;4957998;28;20073;-88
2022/10/06 06:33:00;;;;;;;31.35;19.25;;;;;;;16.51;100.00;101592.91;4973743;28;20043;-88
2022/10/06 06:35:30;;;;;;;38.08;19.20;;;;;;;16.63;100.00;101600.59;4974692;28;20031;-86
2022/10/06 06:37:58;;;;;;;28.38;18.65;;;;;;;17.38;100.00;101609.63;4958399;28;20030;-87
2022/10/06 06:40:24;;;;;;;35.35;18.85;;;;;;;17.70;100.00;101608.56;4967455;29;20027;-86
2022/10/06 06:42:50;;;;;;;34.78;19.30;;;;;;;17.93;100.00;101612.03;4964361;29;20087;-88
2022/10/06 06:45:34;;;;;;;34.05;17.42;;;;;;;18.52;100.00;101618.25;4950125;29;20050;-84
2022/10/06 06:48:15;;;;;;;28.33;18.30;;;;;;;18.44;100.00;101620.97;4940556;29;20026;-86
2022/10/06 06:50:43;;;;;;;26.85;17.05;;;;;;;18.64;100.00;101627.47;4936267;29;20059;-86
2022/10/06 06:53:10;;;;;;;32.20;17.02;;;;;;;18.97;100.00;101628.69;4950018;29;20059;-86
2022/10/06 06:55:37;;;;;;;31.55;17.00;;;;;;;18.83;100.00;101631.41;4933590;29;20044;-87
2022/10/06 06:58:04;;;;;;;28.00;17.02;;;;;;;19.27;100.00;101628.56;4935593;29;20071;-86
2022/10/06 07:00:30;;;;;;;33.83;17.00;;;;;;;19.02;100.00;101637.00;4949718;29;20043;-87
2022/10/06 07:02:59;;;;;;;28.60;17.80;;;;;;;18.68;100.00;101639.50;4934685;29;20051;-87
2022/10/06 07:05:28;;;;;;;26.13;18.23;;;;;;;18.59;100.00;101648.69;4934965;29;20044;-86
2022/10/06 07:07:54;;;;;;;31.40;18.10;;;;;;;18.98;100.00;101649.16;4950562;29;20031;-86
2022/10/06 07:10:21;;;;;;;39.00;17.80;;;;;;;19.16;100.00;101640.66;4934243;29;20043;-84
2022/10/06 07:12:47;;;;;;;43.15;18.00;;;;;;;20.17;100.00;101643.00;4934402;29;20046;-85
2022/10/06 07:26:18;;;;;;;32.95;17.42;;;;;;;21.10;100.00;101666.72;4941926;29;20039;-86
2022/10/06 07:28:44;;;;;;;29.13;16.95;;;;;;;21.41;100.00;101655.38;4943511;29;20049;-85
2022/10/06 07:31:12;;;;;;;30.20;17.23;;;;;;;21.82;100.00;101672.19;4958200;29;20059;-85
2022/10/06 07:33:40;;;;;;;34.47;17.08;;;;;;;21.23;100.00;101672.13;4943510;29;20027;-84
2022/10/06 07:36:11;;;;;;;33.25;18.23;;;;;;;21.12;100.00;101676.25;4943936;29;20026;-84
2022/10/06 07:38:39;;;;;;;30.33;16.60;;;;;;;21.44;100.00;101673.84;4944332;29;20055;-84
2022/10/06 07:41:05;;;;;;;29.90;17.40;;;;;;;21.65;100.00;101670.94;4955645;29;20043;-86
2022/10/06 07:43:34;;;;;;;26.05;15.98;;;;;;;21.44;100.00;101676.53;4954843;29;20035;-86
2022/10/06 07:46:01;;;;;;;28.52;15.15;;;;;;;22.24;100.00;101680.94;4937815;29;20207;-86
2022/10/06 07:48:34;;;;;;;30.63;16.63;;;;;;;22.56;100.00;101683.56;4950995;29;20031;-83
2022/10/06 07:51:05;;;;;;;32.33;17.90;;;;;;;22.32;100.00;101689.63;4967655;29;20104;-85
2022/10/06 07:53:36;;;;;;;32.90;16.83;;;;;;;22.25;100.00;101687.97;4952619;29;20070;-85
2022/10/06 07:56:14;;;;;;;30.65;18.10;;;;;;;22.31;100.00;101692.53;4938077;29;20043;-85
2022/10/06 07:58:43;;;;;;;35.42;18.15;;;;;;;22.13;100.00;101693.19;4938170;29;20035;-85
2022/10/06 08:01:12;;;;;;;32.40;18.55;;;;;;;22.04;100.00;101687.16;4971345;29;20035;-87
2022/10/06 08:03:39;;;;;;;34.10;17.40;;;;;;;22.82;100.00;101700.75;4970494;29;20035;-86
2022/10/06 08:06:05;;;;;;;28.73;16.58;;;;;;;22.58;100.00;101694.97;4969629;29;20040;-86
2022/10/06 08:08:35;;;;;;;31.10;17.23;;;;;;;22.50;100.00;101694.38;4954771;29;20027;-86
2022/10/06 08:11:07;;;;;;;26.15;16.27;;;;;;;22.84;100.00;101704.88;4972603;29;20039;-88
2022/10/06 08:13:41;;;;;;;26.35;15.55;;;;;;;23.24;100.00;101710.94;4940756;29;20039;-87
2022/10/06 08:16:19;;;;;;;29.30;16.92;;;;;;;23.75;100.00;101713.56;4940781;29;20078;-86
2022/10/06 08:18:53;;;;;;;27.52;16.70;;;;;;;23.93;100.00;101708.19;4954707;29;20035;-86
2022/10/06 08:21:29;;;;;;;36.05;15.98;;;;;;;24.54;95.80;101719.13;4955737;29;20035;-85
2022/10/06 08:23:56;;;;;;;26.35;16.05;;;;;;;24.59;95.45;101715.75;4957258;28;20043;-86
2022/10/06 08:26:23;;;;;;;23.30;15.20;;;;;;;24.32;95.93;101719.78;4959441;29;20085;-86
2022/10/06 08:28:58;;;;;;;33.28;16.08;;;;;;;24.08;97.45;101710.59;4978504;29;20039;-88
2022/10/06 08:31:24;;;;;;;24.83;13.93;;;;;;;23.78;98.59;101713.13;4931945;29;20031;-85
2022/10/06 08:33:54;;;;;;;22.35;14.77;;;;;;;23.93;95.33;101708.19;4961581;29;20036;-86
2022/10/06 08:36:27;;;;;;;19.95;14.73;;;;;;;23.93;95.34;101713.63;4961592;29;20043;-87
2022/10/06 08:38:53;;;;;;;27.73;15.10;;;;;;;23.78;98.45;101712.28;4950928;29;20108;-86
2022/10/06 08:41:25;;;;;;;24.98;15.32;;;;;;;23.81;95.67;101712.69;4957771;29;20090;-90
2022/10/06 08:44:01;;;;;;;24.85;15.50;;;;;;;23.96;95.75;101707.75;4958178;29;20047;-88
2022/10/06 08:46:45;;;;;;;25.45;16.73;;;;;;;24.36;94.45;101710.94;4965159;29;20046;-89
2022/10/06 08:49:17;;;;;;;25.55;17.00;;;;;;;24.75;90.87;101711.59;4964828;29;20054;-87
2022/10/06 08:54:50;;;;;;;30.10;20.42;;;;;;;24.38;92.37;101708.03;4620698;26;20048;-91
2022/10/06 08:57:43;;;;;;;30.55;20.00;;;;;;;24.81;89.93;101713.41;4914548;29;20056;-87
2022/10/06 09:00:13;;;;;;;35.40;21.75;;;;;;;25.05;89.05;101718.78;4937885;29;20051;-89
2022/10/06 09:02:44;;;;;;;38.38;20.52;;;;;;;25.51;87.21;101720.03;4943951;29;20040;-91
2022/10/06 09:05:18;;;;;;;30.75;19.55;;;;;;;25.06;88.89;101725.81;4940278;29;20476;-87
2022/10/06 09:07:55;;;;;;;31.20;21.27;;;;;;;24.92;88.64;101721.66;4921456;29;20482;-86
2022/10/06 09:11:01;;;;;;;32.58;20.98;;;;;;;24.81;91.05;101725.06;4940288;29;20234;-91
2022/10/06 09:13:36;;;;;;;28.92;20.30;;;;;;;25.23;88.93;101719.75;4909386;29;20442;-89
2022/10/06 09:16:06;;;;;;;34.35;21.25;;;;;;;25.39;88.62;101727.28;4934552;29;20040;-89
2022/10/06 09:18:43;;;;;;;35.65;21.55;;;;;;;25.20;88.02;101721.06;4937009;29;20038;-89
2022/10/06 09:21:24;;;;;;;33.85;22.13;;;;;;;25.62;85.27;101725.47;4940804;29;20032;-89
2022/10/06 09:24:01;;;;;;;33.42;22.48;;;;;;;25.68;84.62;101726.47;4937475;29;20048;-90
2022/10/06 09:26:30;;;;;;;31.23;21.88;;;;;;;26.28;81.00;101716.28;4938381;29;20035;-89
2022/10/06 09:28:56;;;;;;;37.55;23.10;;;;;;;26.32;80.00;101722.88;4922990;29;20083;-90
2022/10/06 09:31:25;;;;;;;31.13;20.88;;;;;;;26.95;78.18;101720.22;4938901;29;20039;-89
2022/10/06 09:34:03;;;;;;;35.38;21.77;;;;;;;27.11;77.14;101722.16;4938058;29;20075;-91
2022/10/06 09:36:29;;;;;;;35.65;22.42;;;;;;;27.16;76.30;101722.28;4938194;29;20043;-91
2022/10/06 09:38:59;;;;;;;29.83;21.15;;;;;;;27.85;72.67;101711.28;4939004;29;20466;-92
2022/10/06 09:41:36;;;;;;;34.38;22.65;;;;;;;27.54;74.69;101720.84;4938786;29;20040;-88
2022/10/06 09:44:22;;;;;;;33.75;22.52;;;;;;;27.08;76.29;101728.09;4943595;29;20036;-90
2022/10/06 09:46:47;;;;;;;36.97;23.35;;;;;;;26.61;78.88;101715.66;4939663;29;20133;-92
2022/10/06 09:49:18;;;;;;;39.45;22.95;;;;;;;27.07;75.66;101720.19;4909596;29;20468;-88
2022/10/06 09:52:10;;;;;;;33.30;22.42;;;;;;;27.60;74.76;101706.25;4939695;29;20047;-87
2022/10/06 09:54:37;;;;;;;30.35;20.95;;;;;;;27.71;74.84;101716.22;4936894;29;20048;-91
2022/10/06 09:57:09;;;;;;;29.40;22.02;;;;;;;27.88;73.23;101711.63;4940084;29;20050;-91
2022/10/06 09:59:41;;;;;;;29.02;20.42;;;;;;;28.14;71.41;101710.97;4946943;29;20055;-91
2022/10/06 10:02:25;;;;;;;30.52;20.83;;;;;;;28.90;69.99;101714.75;4929947;29;20054;-89
2022/10/06 10:04:54;;;;;;;26.38;18.05;;;;;;;28.96;68.63;101713.78;4939249;29;20468;-90
2022/10/06 10:07:25;;;;;;;28.08;20.35;;;;;;;29.36;67.37;101718.88;4942093;29;20023;-87
2022/10/06 10:09:58;;;;;;;32.17;21.92;;;;;;;29.13;68.60;101711.75;4964237;29;20120;-88
2022/10/06 10:12:26;;;;;;;32.63;22.65;;;;;;;29.05;68.06;101714.97;4923067;29;20535;-90
2022/10/06 10:14:58;;;;;;;30.77;20.58;;;;;;;28.84;67.78;101715.78;4946376;29;20035;-90
2022/10/06 10:17:33;;;;;;;;;;;;;;;29.20;67.46;101717.84;4922293;29;20043;-87
2022/10/06 10:20:01;;;;;;;31.77;21.65;;;;;;;29.11;67.00;101703.00;4948302;29;19926;-89
2022/10/06 10:22:37;;;;;;;31.83;19.73;;;;;;;29.38;67.08;101710.41;4939576;29;20035;-90
2022/10/06 10:25:12;;;;;;;34.65;21.73;;;;;;;29.88;65.29;101713.66;4941601;29;20111;-89
2022/10/06 10:27:53;;;;;;;33.70;22.50;;;;;;;29.95;62.94;101711.50;4960972;29;20039;-88
2022/10/06 10:30:19;;;;;;;35.95;22.63;;;;;;;29.38;64.47;101713.97;4970814;28;20055;-89
2022/10/06 10:32:57;;;;;;;34.22;23.13;;;;;;;29.11;66.30;101715.81;4961048;29;20056;-89
2022/10/06 10:35:45;;;;;;;31.83;20.92;;;;;;;29.45;65.90;101716.50;4960413;28;20040;-88
2022/10/06 10:38:30;;;;;;;32.40;22.75;;;;;;;30.03;62.84;101705.53;4925243;29;20032;-90
2022/10/06 10:41:46;;;;;;;30.70;21.35;;;;;;;30.56;60.91;101703.72;4954369;29;20044;-90
2022/10/06 10:44:47;;;;;;;37.22;24.13;;;;;;;30.08;64.02;101704.75;4965332;28;20062;-91
2022/10/06 10:47:29;;;;;;;31.70;22.67;;;;;;;30.55;61.66;101705.63;4955493;29;20035;-87
2022/10/06 10:50:23;;;;;;;37.50;23.63;;;;;;;30.67;60.53;101698.03;4937091;29;20035;-87
2022/10/06 10:52:58;;;;;;;35.75;22.45;;;;;;;30.45;60.79;101697.38;4917180;29;20120;-90
2022/10/06 10:55:33;;;;;;;36.38;23.05;;;;;;;28.81;66.05;101694.47;4914047;29;20047;-89
2022/10/06 10:58:29;;;;;;;32.13;23.70;;;;;;;27.83;70.25;101697.91;4924680;29;20035;-91
2022/10/06 11:01:04;;;;;;;31.15;22.50;;;;;;;26.47;67.94;101687.06;4937997;29;20564;-86
2022/10/06 11:03:30;;;;;;;36.17;23.20;;;;;;;26.14;69.77;101683.06;4920713;29;20036;-90
2022/10/06 11:06:37;;;;;;;30.38;22.55;;;;;;;25.94;71.05;101682.56;4949025;29;20059;-89
2022/10/06 11:09:07;;;;;;;30.00;21.17;;;;;;;26.01;71.04;101683.28;4909367;29;20043;-91
2022/10/06 11:12:06;;;;;;;37.42;22.75;;;;;;;25.58;73.80;101678.16;4945432;29;20091;-89
2022/10/06 11:14:34;;;;;;;33.40;23.17;;;;;;;24.96;78.29;101674.00;4946841;29;20044;-88
2022/10/06 11:17:00;;;;;;;33.78;23.63;;;;;;;24.48;82.49;101664.97;4903162;29;20042;-89
2022/10/06 11:19:36;;;;;;;35.72;23.85;;;;;;;24.28;83.64;101664.38;4935318;29;20126;-88
2022/10/06 11:22:07;;;;;;;33.08;22.27;;;;;;;24.77;80.41;101669.63;4931678;29;20048;-88
2022/10/06 11:24:57;;;;;;;38.65;21.58;;;;;;;25.32;76.75;101672.28;4919283;29;20032;-89
2022/10/06 11:27:34;;;;;;;33.58;21.70;;;;;;;25.43;74.63;101669.56;4919665;29;20051;-91
2022/10/06 11:30:14;;;;;;;32.65;21.67;;;;;;;25.83;75.74;101667.09;4940121;29;20122;-92
2022/10/06 11:32:55;;;;;;;37.47;23.45;;;;;;;26.70;70.28;101674.25;4921058;29;20027;-90
2022/10/06 11:35:22;;;;;;;31.85;23.08;;;;;;;27.24;67.10;101662.00;4946138;29;20078;-89
2022/10/06 11:38:06;;;;;;;36.90;24.35;;;;;;;27.18;67.07;101662.13;4933814;29;20346;-91
2022/10/06 11:41:15;;;;;;;35.22;23.00;;;;;;;27.33;65.82;101664.31;4949258;29;20124;-90